Time;durP1;ratioP1;P1;durP2;ratioP2;P2;SDS_P1;SDS_P2;PMS_P1;PMS_P2;Temp;Humidity;BMP_temperature;BMP_pressure;BME280_temperature;BME280_humidity;BME280_pressure;Samples;Min_cycle;Max_cycle;Signal;HPM_P1;HPM_P2
2023/03/07 00:00:55;;;;;;;14.30;9.40;;;;;;;;;;4937927;28;20236;-77
2023/03/07 00:03:22;;;;;;;15.63;9.47;;;;;;;;;;4945768;28;20251;-78
2023/03/07 00:05:59;;;;;;;14.00;10.20;;;;;;;;;;4946982;28;22592;-78
2023/03/07 00:08:26;;;;;;;13.23;9.13;;;;;;;;;;4948613;28;20216;-79
2023/03/07 00:10:53;;;;;;;13.03;9.43;;;;;;;;;;4948920;28;20956;-78
2023/03/07 00:13:21;;;;;;;13.50;9.30;;;;;;;;;;4949592;28;20224;-77
2023/03/07 00:15:48;;;;;;;13.77;8.87;;;;;;;;;;4961024;28;20201;-78
2023/03/07 00:18:15;;;;;;;15.77;9.40;;;;;;;;;;4960730;28;20205;-77
2023/03/07 00:20:43;;;;;;;15.40;9.87;;;;;;;;;;4961069;28;20235;-77
2023/03/07 00:23:11;;;;;;;15.93;9.97;;;;;;;;;;4969188;28;20509;-78
2023/03/07 00:25:38;;;;;;;13.50;9.53;;;;;;;;;;4968775;28;20215;-78
2023/03/07 00:28:05;;;;;;;15.20;10.23;;;;;;;;;;4971292;28;20231;-76
2023/03/07 00:30:33;;;;;;;13.07;9.60;;;;;;;;;;4982418;28;20200;-76
2023/03/07 00:33:01;;;;;;;13.10;9.30;;;;;;;;;;4969618;28;20204;-77
2023/03/07 00:35:28;;;;;;;14.33;10.10;;;;;;;;;;4977924;28;20215;-78
2023/03/07 00:37:55;;;;;;;14.53;9.80;;;;;;;;;;4962880;28;20701;-75
2023/03/07 00:40:23;;;;;;;13.80;9.97;;;;;;;;;;4973069;28;20208;-76
2023/03/07 00:42:51;;;;;;;17.90;10.20;;;;;;;;;;4976469;28;20239;-78
2023/03/07 00:45:18;;;;;;;14.53;9.87;;;;;;;;;;4956062;28;20230;-76
2023/03/07 00:47:46;;;;;;;15.13;10.70;;;;;;;;;;4960758;28;20304;-78
2023/03/07 00:50:13;;;;;;;13.10;9.77;;;;;;;;;;4957237;28;20217;-78
2023/03/07 00:52:40;;;;;;;13.20;9.77;;;;;;;;;;4950643;28;20231;-77
2023/03/07 00:55:07;;;;;;;13.40;9.13;;;;;;;;;;4954216;28;21139;-75
2023/03/07 00:57:34;;;;;;;12.20;9.00;;;;;;;;;;4952108;28;20220;-76
2023/03/07 01:00:02;;;;;;;12.67;9.00;;;;;;;;;;4964776;28;20291;-77
2023/03/07 01:02:29;;;;;;;12.43;8.73;;;;;;;;;;4960933;28;20306;-76
2023/03/07 01:04:56;;;;;;;12.40;8.73;;;;;;;;;;4966525;28;20230;-78
2023/03/07 01:07:23;;;;;;;12.73;8.83;;;;;;;;;;4972142;28;20204;-76
2023/03/07 01:09:52;;;;;;;14.27;8.70;;;;;;;;;;4955126;28;20991;-77
2023/03/07 01:12:19;;;;;;;10.53;7.73;;;;;;;;;;4951259;28;20253;-76
2023/03/07 01:14:49;;;;;;;12.70;8.27;;;;;;;;;;4951584;28;20208;-76
2023/03/07 01:17:16;;;;;;;13.30;8.47;;;;;;;;;;4954700;28;20209;-77
2023/03/07 01:19:43;;;;;;;10.67;7.87;;;;;;;;;;4944057;28;20221;-78
2023/03/07 01:22:10;;;;;;;11.40;7.70;;;;;;;;;;4943203;28;20237;-77
2023/03/07 01:24:38;;;;;;;11.23;7.37;;;;;;;;;;4941011;28;20247;-77
2023/03/07 01:27:05;;;;;;;11.30;7.40;;;;;;;;;;4947494;28;20215;-77
2023/03/07 01:29:33;;;;;;;11.27;7.43;;;;;;;;;;4940065;28;20307;-74
2023/03/07 01:32:00;;;;;;;12.00;7.40;;;;;;;;;;4930183;28;20232;-77
2023/03/07 01:34:27;;;;;;;10.97;8.30;;;;;;;;;;4935725;28;20654;-78
2023/03/07 01:36:55;;;;;;;11.83;7.60;;;;;;;;;;4937776;28;20216;-75
2023/03/07 01:39:22;;;;;;;9.23;7.40;;;;;;;;;;4943409;28;20217;-77
2023/03/07 01:41:49;;;;;;;10.33;7.43;;;;;;;;;;4939820;28;20230;-78
2023/03/07 01:44:21;;;;;;;10.40;7.17;;;;;;;;;;4939542;28;20379;-78
2023/03/07 01:46:52;;;;;;;12.00;7.77;;;;;;;;;;4948383;28;20300;-76
2023/03/07 01:49:31;;;;;;;13.00;8.20;;;;;;;;;;4935978;28;20213;-75
2023/03/07 01:52:02;;;;;;;12.63;7.30;;;;;;;;;;4950423;28;20224;-75
2023/03/07 01:54:30;;;;;;;12.93;7.77;;;;;;;;;;4938366;28;20212;-76
2023/03/07 01:56:58;;;;;;;8.67;7.03;;;;;;;;;;4940508;28;20215;-76
2023/03/07 01:59:29;;;;;;;9.90;6.70;;;;;;;;;;4936932;28;20219;-75
2023/03/07 02:01:59;;;;;;;11.90;7.27;;;;;;;;;;4940151;28;20768;-75
2023/03/07 02:04:36;;;;;;;11.07;7.67;;;;;;;;;;4943630;28;20234;-77
2023/03/07 02:07:03;;;;;;;11.10;7.73;;;;;;;;;;4949309;28;20204;-75
2023/03/07 02:09:32;;;;;;;11.60;7.67;;;;;;;;;;4943559;28;20204;-77
2023/03/07 02:12:00;;;;;;;11.03;8.03;;;;;;;;;;4941601;28;20236;-76
2023/03/07 02:14:27;;;;;;;10.87;7.33;;;;;;;;;;4940343;28;20215;-76
2023/03/07 02:16:55;;;;;;;11.83;7.57;;;;;;;;;;4977231;28;20201;-76
2023/03/07 02:19:29;;;;;;;10.23;7.30;;;;;;;;;;4965352;28;20258;-75
2023/03/07 02:22:10;;;;;;;10.67;8.07;;;;;;;;;;4967824;28;21738;-75
2023/03/07 02:24:43;;;;;;;9.80;7.47;;;;;;;;;;4952497;28;20350;-77
2023/03/07 02:27:10;;;;;;;10.80;7.30;;;;;;;;;;4953626;28;20216;-74
2023/03/07 02:29:38;;;;;;;11.60;7.90;;;;;;;;;;4937887;28;20565;-76
2023/03/07 02:32:05;;;;;;;12.43;7.80;;;;;;;;;;4939510;28;20634;-75
2023/03/07 02:34:33;;;;;;;11.37;7.70;;;;;;;;;;4949774;28;20212;-76
2023/03/07 02:37:04;;;;;;;11.73;7.50;;;;;;;;;;4946359;28;20219;-77
2023/03/07 02:39:32;;;;;;;10.40;7.40;;;;;;;;;;4936525;28;20275;-75
2023/03/07 02:42:03;;;;;;;10.37;6.97;;;;;;;;;;4944689;28;20239;-77
2023/03/07 02:44:30;;;;;;;10.23;7.40;;;;;;;;;;4939705;28;20228;-75
2023/03/07 02:46:59;;;;;;;12.73;7.87;;;;;;;;;;4945421;28;20205;-74
2023/03/07 02:49:26;;;;;;;12.23;8.10;;;;;;;;;;4946550;28;20219;-76
2023/03/07 02:51:57;;;;;;;11.10;7.33;;;;;;;;;;4938132;28;20220;-76
2023/03/07 02:54:24;;;;;;;12.00;8.07;;;;;;;;;;4938325;28;20209;-77
2023/03/07 02:56:52;;;;;;;10.90;7.30;;;;;;;;;;4939698;28;20217;-77
2023/03/07 02:59:21;;;;;;;12.37;8.07;;;;;;;;;;4966523;28;20209;-74
2023/03/07 03:01:48;;;;;;;10.97;7.77;;;;;;;;;;4958851;28;20224;-77
2023/03/07 03:04:15;;;;;;;10.60;7.23;;;;;;;;;;4975216;28;20263;-78
2023/03/07 03:06:45;;;;;;;11.87;7.43;;;;;;;;;;4968956;28;20208;-78
2023/03/07 03:09:12;;;;;;;11.23;7.80;;;;;;;;;;4966578;28;20197;-77
2023/03/07 03:11:39;;;;;;;12.40;7.80;;;;;;;;;;4953927;28;20228;-76
2023/03/07 03:14:07;;;;;;;11.67;7.60;;;;;;;;;;4952100;28;20213;-76
2023/03/07 03:16:34;;;;;;;11.90;7.60;;;;;;;;;;4948895;28;20216;-78
2023/03/07 03:19:01;;;;;;;12.43;8.50;;;;;;;;;;4963330;28;20363;-76
2023/03/07 03:21:29;;;;;;;15.33;8.17;;;;;;;;;;4955057;28;20576;-77
2023/03/07 03:23:56;;;;;;;11.17;7.33;;;;;;;;;;4957465;28;20224;-76
2023/03/07 03:26:23;;;;;;;10.37;7.43;;;;;;;;;;4954908;28;20223;-74
2023/03/07 03:28:53;;;;;;;11.17;7.27;;;;;;;;;;4958638;28;20211;-76
2023/03/07 03:31:21;;;;;;;12.13;7.47;;;;;;;;;;4956267;28;20395;-79
2023/03/07 03:33:50;;;;;;;11.20;7.20;;;;;;;;;;4950303;28;20266;-74
2023/03/07 03:36:18;;;;;;;9.20;7.07;;;;;;;;;;4953357;28;20223;-77
2023/03/07 03:38:45;;;;;;;9.67;6.70;;;;;;;;;;4945227;28;20741;-78
2023/03/07 03:41:17;;;;;;;10.90;6.97;;;;;;;;;;4956733;28;20714;-76
2023/03/07 03:43:44;;;;;;;10.93;7.13;;;;;;;;;;4957006;28;20227;-77
2023/03/07 03:46:12;;;;;;;19.93;11.67;;;;;;;;;;4949976;28;20260;-78
2023/03/07 03:48:39;;;;;;;23.43;13.27;;;;;;;;;;4955410;28;20212;-77
2023/03/07 03:51:09;;;;;;;12.47;7.80;;;;;;;;;;4956466;28;20239;-76
2023/03/07 03:53:37;;;;;;;12.73;7.70;;;;;;;;;;4948820;28;20222;-76
2023/03/07 03:56:06;;;;;;;12.97;8.23;;;;;;;;;;4949108;28;20213;-76
2023/03/07 03:58:33;;;;;;;13.57;7.93;;;;;;;;;;4956198;28;20220;-76
2023/03/07 04:01:06;;;;;;;15.07;9.10;;;;;;;;;;4952257;28;20247;-77
2023/03/07 04:03:34;;;;;;;13.70;8.67;;;;;;;;;;4956423;28;20229;-75
2023/03/07 04:06:03;;;;;;;10.73;7.47;;;;;;;;;;4956202;28;20207;-78
2023/03/07 04:08:30;;;;;;;12.13;7.67;;;;;;;;;;4962000;28;20208;-77
2023/03/07 04:10:58;;;;;;;12.17;8.83;;;;;;;;;;4953854;28;20228;-74
2023/03/07 04:13:25;;;;;;;12.03;7.37;;;;;;;;;;4953078;28;20746;-78
2023/03/07 04:15:56;;;;;;;10.00;7.03;;;;;;;;;;4951860;28;20208;-79
2023/03/07 04:18:23;;;;;;;10.77;7.00;;;;;;;;;;4947453;28;20209;-79
2023/03/07 04:20:51;;;;;;;11.63;7.90;;;;;;;;;;4953383;28;20733;-79
2023/03/07 04:23:22;;;;;;;10.97;7.47;;;;;;;;;;4945851;28;20239;-79
2023/03/07 04:25:51;;;;;;;10.57;7.30;;;;;;;;;;4954082;28;20287;-78
2023/03/07 04:28:19;;;;;;;12.87;7.70;;;;;;;;;;4950601;28;20243;-78
2023/03/07 04:30:48;;;;;;;10.67;7.13;;;;;;;;;;4958740;28;20205;-77
2023/03/07 04:33:16;;;;;;;11.23;6.93;;;;;;;;;;4950112;28;20223;-79
2023/03/07 04:35:44;;;;;;;10.87;7.10;;;;;;;;;;4959432;28;20222;-77
2023/03/07 04:38:12;;;;;;;11.53;7.80;;;;;;;;;;4947925;28;20211;-78
2023/03/07 04:40:39;;;;;;;11.90;6.90;;;;;;;;;;4945125;28;20203;-77
2023/03/07 04:43:07;;;;;;;11.63;6.93;;;;;;;;;;4945592;28;20211;-79
2023/03/07 04:45:35;;;;;;;11.00;7.37;;;;;;;;;;4940331;28;20228;-77
2023/03/07 04:48:03;;;;;;;9.73;7.10;;;;;;;;;;4949444;28;20299;-77
2023/03/07 04:50:31;;;;;;;11.70;7.53;;;;;;;;;;4943835;28;20214;-77
2023/03/07 04:52:58;;;;;;;10.93;7.43;;;;;;;;;;4939937;28;20229;-76
2023/03/07 04:55:25;;;;;;;12.57;6.80;;;;;;;;;;4944432;28;20210;-77
2023/03/07 04:57:52;;;;;;;14.23;7.50;;;;;;;;;;4952900;28;20408;-80
2023/03/07 05:00:20;;;;;;;10.53;7.40;;;;;;;;;;4955177;28;20233;-78
2023/03/07 05:02:48;;;;;;;10.37;7.37;;;;;;;;;;4955795;28;20599;-79
2023/03/07 05:05:16;;;;;;;10.80;7.30;;;;;;;;;;4961933;28;20310;-79
2023/03/07 05:07:43;;;;;;;10.30;7.10;;;;;;;;;;4963769;28;20282;-79
2023/03/07 05:10:11;;;;;;;11.07;7.27;;;;;;;;;;4947018;28;21905;-79
2023/03/07 05:12:38;;;;;;;12.00;7.30;;;;;;;;;;4943146;28;20258;-76
2023/03/07 05:15:06;;;;;;;13.80;7.33;;;;;;;;;;4943840;28;20286;-78
2023/03/07 05:17:33;;;;;;;10.23;7.23;;;;;;;;;;4936499;28;20358;-78
2023/03/07 05:20:01;;;;;;;8.57;6.67;;;;;;;;;;4937554;28;20224;-77
2023/03/07 05:22:28;;;;;;;9.63;7.33;;;;;;;;;;4942625;28;20227;-77
2023/03/07 05:24:57;;;;;;;11.73;8.20;;;;;;;;;;4935746;28;20240;-78
2023/03/07 05:27:24;;;;;;;11.47;7.87;;;;;;;;;;4946495;28;20258;-76
2023/03/07 05:29:51;;;;;;;10.37;7.10;;;;;;;;;;4940942;28;21519;-78
2023/03/07 05:32:19;;;;;;;10.70;6.97;;;;;;;;;;4941969;28;20460;-76
2023/03/07 05:34:47;;;;;;;11.00;7.30;;;;;;;;;;4943451;28;20237;-80
2023/03/07 05:37:14;;;;;;;10.97;7.20;;;;;;;;;;4935807;28;20248;-79
2023/03/07 05:39:41;;;;;;;11.60;7.00;;;;;;;;;;4948199;28;21102;-79
2023/03/07 05:42:08;;;;;;;9.83;6.90;;;;;;;;;;4940649;28;20231;-79
2023/03/07 05:44:35;;;;;;;12.07;7.70;;;;;;;;;;4950470;28;20254;-78
2023/03/07 05:47:03;;;;;;;16.33;7.53;;;;;;;;;;4947168;28;20209;-77
2023/03/07 05:49:30;;;;;;;11.80;7.50;;;;;;;;;;4934302;28;20211;-76
2023/03/07 05:51:57;;;;;;;10.93;7.30;;;;;;;;;;4954084;28;20230;-78
2023/03/07 05:54:24;;;;;;;9.53;7.13;;;;;;;;;;4946861;28;20218;-76
2023/03/07 05:56:51;;;;;;;10.40;7.27;;;;;;;;;;4945329;28;20222;-75
2023/03/07 05:59:19;;;;;;;11.47;7.23;;;;;;;;;;4941690;28;20675;-76
2023/03/07 06:01:46;;;;;;;11.07;7.50;;;;;;;;;;4941733;28;20239;-77
2023/03/07 06:04:13;;;;;;;11.57;7.57;;;;;;;;;;4948992;28;20704;-77
2023/03/07 06:06:41;;;;;;;11.13;7.27;;;;;;;;;;4952034;28;20208;-77
2023/03/07 06:09:08;;;;;;;11.03;7.43;;;;;;;;;;4950682;28;20204;-77
2023/03/07 06:11:35;;;;;;;12.17;7.17;;;;;;;;;;4952606;28;20241;-79
2023/03/07 06:14:02;;;;;;;10.23;7.40;;;;;;;;;;4951172;28;20218;-77
2023/03/07 06:16:29;;;;;;;11.87;7.77;;;;;;;;;;4966886;28;20414;-78
2023/03/07 06:18:57;;;;;;;11.10;6.67;;;;;;;;;;4966873;28;20239;-75
2023/03/07 06:21:24;;;;;;;11.93;8.27;;;;;;;;;;4960650;28;20273;-76
2023/03/07 06:23:51;;;;;;;11.47;7.83;;;;;;;;;;4962273;28;20216;-78
2023/03/07 06:26:18;;;;;;;12.87;7.07;;;;;;;;;;4953986;28;20207;-75
2023/03/07 06:28:46;;;;;;;11.87;7.80;;;;;;;;;;4937275;28;20425;-77
2023/03/07 06:31:14;;;;;;;11.73;8.17;;;;;;;;;;4940425;28;20228;-75
2023/03/07 06:33:46;;;;;;;13.03;8.40;;;;;;;;;;4951760;28;20255;-76
2023/03/07 06:36:15;;;;;;;12.57;8.87;;;;;;;;;;4954109;28;20223;-76
2023/03/07 06:38:42;;;;;;;12.37;7.70;;;;;;;;;;4952433;28;20216;-76
2023/03/07 06:41:09;;;;;;;10.77;7.40;;;;;;;;;;4937651;28;20236;-76
2023/03/07 06:43:36;;;;;;;15.27;10.10;;;;;;;;;;4948562;28;20528;-78
2023/03/07 06:46:04;;;;;;;11.70;8.40;;;;;;;;;;4930745;28;21221;-76
2023/03/07 06:48:33;;;;;;;14.07;9.03;;;;;;;;;;4948408;28;20302;-78
2023/03/07 06:51:05;;;;;;;14.33;8.60;;;;;;;;;;4938642;28;20922;-77
2023/03/07 06:53:33;;;;;;;12.93;8.50;;;;;;;;;;4941929;28;20727;-77
2023/03/07 06:56:00;;;;;;;16.90;8.83;;;;;;;;;;4940187;28;20913;-76
2023/03/07 06:58:27;;;;;;;12.00;8.13;;;;;;;;;;4957800;28;20226;-76
2023/03/07 07:00:54;;;;;;;12.63;8.60;;;;;;;;;;4964829;28;20233;-77
2023/03/07 07:03:22;;;;;;;12.03;8.23;;;;;;;;;;4964491;28;20313;-77
2023/03/07 07:05:49;;;;;;;10.73;7.80;;;;;;;;;;4973230;28;20231;-77
2023/03/07 07:08:16;;;;;;;12.13;7.67;;;;;;;;;;4961757;28;20209;-78
2023/03/07 07:10:44;;;;;;;10.97;8.10;;;;;;;;;;4951152;28;20208;-76
2023/03/07 07:13:11;;;;;;;11.50;7.57;;;;;;;;;;4944118;28;20223;-76
2023/03/07 07:15:38;;;;;;;12.67;8.30;;;;;;;;;;4950485;28;20219;-78
2023/03/07 07:18:05;;;;;;;13.20;7.87;;;;;;;;;;4957418;28;20299;-76
2023/03/07 07:20:33;;;;;;;12.97;7.43;;;;;;;;;;4964177;28;20256;-78
2023/03/07 07:23:00;;;;;;;10.50;7.80;;;;;;;;;;4960617;28;20274;-76
2023/03/07 07:25:27;;;;;;;12.07;8.70;;;;;;;;;;4952539;28;20243;-77
2023/03/07 07:27:54;;;;;;;17.17;8.37;;;;;;;;;;4948735;28;20211;-78
2023/03/07 07:30:22;;;;;;;9.33;7.10;;;;;;;;;;4963474;28;20288;-78
2023/03/07 07:32:50;;;;;;;11.73;7.80;;;;;;;;;;4950165;28;20228;-77
2023/03/07 07:35:17;;;;;;;13.63;7.57;;;;;;;;;;4951231;28;20212;-78
2023/03/07 07:37:44;;;;;;;15.20;7.87;;;;;;;;;;4947754;28;20200;-78
2023/03/07 07:40:12;;;;;;;9.40;6.87;;;;;;;;;;4952664;28;20216;-75
2023/03/07 07:42:39;;;;;;;10.57;8.13;;;;;;;;;;4942712;28;20237;-77
2023/03/07 07:45:07;;;;;;;12.27;8.20;;;;;;;;;;4956830;28;20220;-78
2023/03/07 07:47:34;;;;;;;11.93;8.03;;;;;;;;;;4958117;28;20869;-77
2023/03/07 07:50:01;;;;;;;10.73;7.57;;;;;;;;;;4958004;28;23458;-77
2023/03/07 07:52:29;;;;;;;10.43;8.27;;;;;;;;;;4957843;28;20432;-77
2023/03/07 07:54:56;;;;;;;13.63;7.70;;;;;;;;;;4955809;28;20217;-77
2023/03/07 07:57:24;;;;;;;10.07;7.60;;;;;;;;;;4957009;28;20319;-77
2023/03/07 07:59:51;;;;;;;10.50;7.37;;;;;;;;;;4951752;28;20204;-78
2023/03/07 08:02:22;;;;;;;11.23;7.80;;;;;;;;;;4944180;28;20795;-77
2023/03/07 08:04:49;;;;;;;10.87;7.43;;;;;;;;;;4965726;28;20290;-75
2023/03/07 08:07:16;;;;;;;9.87;7.43;;;;;;;;;;4950842;28;20208;-77
2023/03/07 08:09:43;;;;;;;13.97;7.60;;;;;;;;;;4947963;28;20306;-76
2023/03/07 08:12:11;;;;;;;12.77;7.60;;;;;;;;;;4955250;28;20240;-76
2023/03/07 08:14:39;;;;;;;12.07;7.97;;;;;;;;;;4942937;28;20216;-77
2023/03/07 08:17:06;;;;;;;12.03;8.50;;;;;;;;;;4960209;28;20215;-76
2023/03/07 08:19:34;;;;;;;11.10;7.30;;;;;;;;;;4953289;28;20212;-74
2023/03/07 08:22:02;;;;;;;11.10;7.77;;;;;;;;;;4954830;28;20228;-76
2023/03/07 08:24:31;;;;;;;12.13;7.77;;;;;;;;;;4948772;28;20210;-73
2023/03/07 08:27:07;;;;;;;10.63;8.17;;;;;;;;;;4956163;28;20215;-77
2023/03/07 08:29:34;;;;;;;10.30;7.63;;;;;;;;;;4955928;28;20244;-76
2023/03/07 08:32:01;;;;;;;13.07;8.07;;;;;;;;;;4957356;28;20233;-74
2023/03/07 08:34:28;;;;;;;11.23;7.87;;;;;;;;;;4935449;28;20215;-76
2023/03/07 08:36:55;;;;;;;10.23;7.37;;;;;;;;;;4956185;28;20209;-74
2023/03/07 08:39:23;;;;;;;12.80;7.93;;;;;;;;;;4958136;28;20235;-77
2023/03/07 08:41:50;;;;;;;13.30;7.50;;;;;;;;;;4957738;28;20231;-74
2023/03/07 08:44:21;;;;;;;11.03;7.27;;;;;;;;;;4950342;28;22828;-75
2023/03/07 08:46:48;;;;;;;10.03;7.27;;;;;;;;;;4953009;28;20224;-76
2023/03/07 08:49:15;;;;;;;9.47;7.47;;;;;;;;;;4952508;28;24965;-76
2023/03/07 08:51:42;;;;;;;12.13;7.83;;;;;;;;;;4956665;28;20675;-76
2023/03/07 08:54:10;;;;;;;9.73;7.57;;;;;;;;;;4949820;28;20215;-76
2023/03/07 08:56:37;;;;;;;11.00;7.73;;;;;;;;;;4960592;28;20227;-75
2023/03/07 08:59:05;;;;;;;10.50;7.50;;;;;;;;;;4975856;28;20208;-76
2023/03/07 09:01:32;;;;;;;10.07;7.50;;;;;;;;;;4974265;28;20265;-77
2023/03/07 09:03:59;;;;;;;11.13;7.20;;;;;;;;;;4972353;28;20291;-78
2023/03/07 09:06:26;;;;;;;10.70;7.30;;;;;;;;;;4968112;28;20839;-76
2023/03/07 09:08:54;;;;;;;9.77;6.87;;;;;;;;;;4971392;28;20208;-78
2023/03/07 09:11:21;;;;;;;10.67;8.03;;;;;;;;;;4954504;28;20224;-76
2023/03/07 09:13:48;;;;;;;11.73;7.10;;;;;;;;;;4946736;28;20283;-73
2023/03/07 09:16:19;;;;;;;10.97;7.77;;;;;;;;;;4957294;28;20212;-76
2023/03/07 09:18:46;;;;;;;11.27;7.60;;;;;;;;;;4951561;28;20245;-74
2023/03/07 09:21:14;;;;;;;10.77;7.77;;;;;;;;;;4959760;28;20243;-76
2023/03/07 09:23:44;;;;;;;10.40;7.37;;;;;;;;;;4951663;28;20236;-74
2023/03/07 09:26:12;;;;;;;11.77;7.73;;;;;;;;;;4960774;28;20225;-77
2023/03/07 09:28:39;;;;;;;12.37;7.90;;;;;;;;;;4957281;28;20304;-78
2023/03/07 09:31:10;;;;;;;12.97;8.03;;;;;;;;;;4967972;28;20229;-78
2023/03/07 09:33:38;;;;;;;10.30;7.07;;;;;;;;;;4950072;28;20224;-76
2023/03/07 09:36:07;;;;;;;13.43;8.33;;;;;;;;;;4956416;28;20270;-75
2023/03/07 09:38:35;;;;;;;8.80;7.30;;;;;;;;;;4962467;28;20329;-75
2023/03/07 09:41:09;;;;;;;10.90;7.33;;;;;;;;;;4956255;28;20283;-78
2023/03/07 09:43:57;;;;;;;10.27;7.20;;;;;;;;;;4962883;28;20591;-78
2023/03/07 09:46:28;;;;;;;13.43;7.90;;;;;;;;;;4951722;28;20229;-75
2023/03/07 09:48:55;;;;;;;10.93;6.87;;;;;;;;;;4958096;28;20641;-77
2023/03/07 09:51:30;;;;;;;10.20;7.10;;;;;;;;;;4953263;28;20328;-76
2023/03/07 09:54:00;;;;;;;9.43;6.57;;;;;;;;;;4945774;28;20212;-76
2023/03/07 09:56:30;;;;;;;11.10;7.47;;;;;;;;;;4957291;28;20862;-74
2023/03/07 09:59:02;;;;;;;10.47;7.47;;;;;;;;;;4958706;28;20295;-77
2023/03/07 10:01:46;;;;;;;10.63;7.60;;;;;;;;;;4955968;28;20400;-75
2023/03/07 10:04:17;;;;;;;9.50;6.27;;;;;;;;;;4942992;28;20917;-78
2023/03/07 10:06:45;;;;;;;10.33;7.47;;;;;;;;;;4942959;28;20240;-74
2023/03/07 10:09:15;;;;;;;10.00;7.83;;;;;;;;;;4960629;28;20205;-77
2023/03/07 10:12:06;;;;;;;14.33;7.63;;;;;;;;;;4952872;28;23840;-76
2023/03/07 10:14:36;;;;;;;9.03;7.07;;;;;;;;;;4959843;28;20213;-78
2023/03/07 10:17:12;;;;;;;8.90;6.73;;;;;;;;;;4956903;28;20208;-76
2023/03/07 10:19:59;;;;;;;9.30;6.67;;;;;;;;;;4951594;28;20359;-77
2023/03/07 10:22:26;;;;;;;9.30;6.67;;;;;;;;;;4967840;28;20341;-78
2023/03/07 10:25:09;;;;;;;10.83;7.20;;;;;;;;;;4988447;28;20236;-76
2023/03/07 10:27:38;;;;;;;9.33;6.63;;;;;;;;;;4958223;28;20732;-78
2023/03/07 10:30:14;;;;;;;9.10;6.83;;;;;;;;;;4949701;28;20222;-76
2023/03/07 10:32:51;;;;;;;8.30;6.37;;;;;;;;;;4949730;28;20231;-77
2023/03/07 10:35:21;;;;;;;10.77;6.83;;;;;;;;;;4957058;28;20270;-75
2023/03/07 10:37:50;;;;;;;8.70;6.40;;;;;;;;;;4950184;28;20212;-74
2023/03/07 10:40:31;;;;;;;8.57;6.73;;;;;;;;;;4956077;28;20656;-76
2023/03/07 10:42:59;;;;;;;12.37;6.60;;;;;;;;;;4957731;28;20267;-78
2023/03/07 10:45:30;;;;;;;10.80;7.30;;;;;;;;;;4955985;28;20224;-77
2023/03/07 10:48:15;;;;;;;9.07;7.17;;;;;;;;;;4951035;28;20299;-74
2023/03/07 10:50:43;;;;;;;10.53;6.93;;;;;;;;;;4952548;28;21572;-77
2023/03/07 10:53:21;;;;;;;9.37;6.33;;;;;;;;;;4944496;28;20238;-75
2023/03/07 10:55:49;;;;;;;11.27;7.27;;;;;;;;;;4951219;28;20211;-74
2023/03/07 10:58:18;;;;;;;9.87;6.70;;;;;;;;;;4965707;28;21313;-78
2023/03/07 11:00:47;;;;;;;9.67;6.47;;;;;;;;;;4963904;28;20205;-76
2023/03/07 11:03:23;;;;;;;8.93;6.57;;;;;;;;;;4975469;28;20741;-76
2023/03/07 11:05:50;;;;;;;9.30;6.57;;;;;;;;;;4969005;28;20226;-75
2023/03/07 11:08:24;;;;;;;10.50;6.67;;;;;;;;;;4971007;28;20210;-76
2023/03/07 11:10:52;;;;;;;8.87;5.73;;;;;;;;;;4955689;28;20218;-76
2023/03/07 11:13:20;;;;;;;8.93;6.20;;;;;;;;;;4951272;28;20209;-76
2023/03/07 11:15:48;;;;;;;9.20;6.50;;;;;;;;;;4952234;28;20415;-73
2023/03/07 11:18:25;;;;;;;7.93;5.87;;;;;;;;;;4944656;28;20340;-75
2023/03/07 11:20:56;;;;;;;10.07;7.10;;;;;;;;;;4955931;28;20214;-75
2023/03/07 11:23:29;;;;;;;8.90;6.40;;;;;;;;;;4955909;28;20280;-77
2023/03/07 11:25:59;;;;;;;10.50;6.77;;;;;;;;;;4951913;28;21113;-76
2023/03/07 11:28:29;;;;;;;8.40;6.37;;;;;;;;;;4951646;28;20697;-75
2023/03/07 11:31:00;;;;;;;9.13;6.90;;;;;;;;;;4970557;28;20703;-77
2023/03/07 11:33:45;;;;;;;9.67;7.23;;;;;;;;;;4960148;28;20725;-77
2023/03/07 11:36:28;;;;;;;17.67;10.30;;;;;;;;;;4949916;28;20215;-77
2023/03/07 11:39:05;;;;;;;10.70;8.10;;;;;;;;;;4936669;28;21010;-74
2023/03/07 11:41:40;;;;;;;9.57;7.03;;;;;;;;;;4923599;28;20232;-74
2023/03/07 11:44:26;;;;;;;11.63;8.10;;;;;;;;;;4943825;28;20671;-75
2023/03/07 11:47:18;;;;;;;11.00;8.80;;;;;;;;;;4940185;28;20244;-75
2023/03/07 11:49:57;;;;;;;10.73;7.80;;;;;;;;;;4951796;28;20372;-77
2023/03/07 11:52:43;;;;;;;13.37;6.57;;;;;;;;;;4957001;28;20232;-76
2023/03/07 11:55:16;;;;;;;8.47;6.30;;;;;;;;;;4940705;28;22201;-78
2023/03/07 11:57:47;;;;;;;8.93;7.07;;;;;;;;;;4959058;28;20209;-78
2023/03/07 12:00:14;;;;;;;9.47;6.83;;;;;;;;;;4940748;28;20223;-78
2023/03/07 12:03:00;;;;;;;11.83;6.83;;;;;;;;;;4952931;28;20236;-77
2023/03/07 12:05:28;;;;;;;10.03;6.47;;;;;;;;;;4956156;28;20326;-77
2023/03/07 12:08:05;;;;;;;9.47;6.40;;;;;;;;;;4945519;28;20216;-76
2023/03/07 12:10:38;;;;;;;13.20;6.80;;;;;;;;;;4952060;28;20216;-74
2023/03/07 12:13:08;;;;;;;10.50;6.60;;;;;;;;;;4960265;28;20411;-78
2023/03/07 12:15:39;;;;;;;9.87;7.10;;;;;;;;;;4966898;28;20200;-76
2023/03/07 12:18:21;;;;;;;9.67;6.10;;;;;;;;;;4958860;28;20209;-77
2023/03/07 12:21:01;;;;;;;10.37;6.87;;;;;;;;;;4952019;28;21465;-77
2023/03/07 12:23:37;;;;;;;10.23;7.33;;;;;;;;;;4961356;28;20233;-78
2023/03/07 12:26:25;;;;;;;10.53;6.83;;;;;;;;;;4959318;28;20936;-78
2023/03/07 12:29:01;;;;;;;8.13;6.60;;;;;;;;;;4955208;28;20304;-77
2023/03/07 12:31:31;;;;;;;8.87;6.90;;;;;;;;;;4958739;28;20314;-76
2023/03/07 12:34:12;;;;;;;8.07;6.53;;;;;;;;;;4959018;28;21137;-77
2023/03/07 12:36:52;;;;;;;9.63;7.20;;;;;;;;;;4962868;28;20219;-76
2023/03/07 12:39:20;;;;;;;11.60;7.63;;;;;;;;;;4964207;28;20729;-77
2023/03/07 12:41:53;;;;;;;12.03;7.20;;;;;;;;;;4950002;28;20336;-78
2023/03/07 12:44:29;;;;;;;8.53;6.43;;;;;;;;;;4950676;28;20212;-77
2023/03/07 12:46:59;;;;;;;9.00;6.70;;;;;;;;;;4954727;28;20224;-78
2023/03/07 12:49:30;;;;;;;10.70;7.27;;;;;;;;;;4960936;28;20291;-77
2023/03/07 12:52:14;;;;;;;10.47;7.53;;;;;;;;;;4963130;28;20912;-76
2023/03/07 12:54:43;;;;;;;8.47;6.13;;;;;;;;;;4949030;28;20259;-76
2023/03/07 12:57:18;;;;;;;9.57;6.30;;;;;;;;;;4945728;28;20303;-76
2023/03/07 12:59:45;;;;;;;12.40;7.40;;;;;;;;;;4962000;28;20303;-75
2023/03/07 13:02:45;;;;;;;13.30;8.30;;;;;;;;;;4977324;28;20252;-78
2023/03/07 13:05:17;;;;;;;12.43;8.43;;;;;;;;;;4956362;28;20259;-76
2023/03/07 13:07:45;;;;;;;14.20;8.03;;;;;;;;;;4984766;28;20689;-77
2023/03/07 13:10:16;;;;;;;9.93;7.23;;;;;;;;;;4961000;28;20636;-77
2023/03/07 13:12:46;;;;;;;10.87;7.00;;;;;;;;;;4957248;28;20247;-76
2023/03/07 13:15:17;;;;;;;9.97;7.00;;;;;;;;;;4952287;28;20208;-77
2023/03/07 13:17:44;;;;;;;9.97;7.10;;;;;;;;;;4951102;28;20212;-77
2023/03/07 13:20:14;;;;;;;9.33;6.90;;;;;;;;;;4953593;28;20224;-76
2023/03/07 13:22:41;;;;;;;12.13;7.33;;;;;;;;;;4951252;28;20302;-77
2023/03/07 13:25:32;;;;;;;9.93;7.33;;;;;;;;;;4963127;28;20658;-75
2023/03/07 13:28:02;;;;;;;11.50;7.40;;;;;;;;;;4963079;28;20228;-74
2023/03/07 13:30:30;;;;;;;10.10;7.00;;;;;;;;;;4962120;28;20298;-78
2023/03/07 13:33:02;;;;;;;14.00;7.17;;;;;;;;;;4962626;28;20239;-76
2023/03/07 13:35:32;;;;;;;11.63;7.73;;;;;;;;;;4963058;28;20974;-74
2023/03/07 13:38:02;;;;;;;9.00;6.70;;;;;;;;;;4963145;28;20208;-75
2023/03/07 13:40:35;;;;;;;10.13;7.50;;;;;;;;;;4949027;28;20335;-76
2023/03/07 13:43:07;;;;;;;9.60;7.50;;;;;;;;;;4952987;28;20327;-76
2023/03/07 13:45:37;;;;;;;9.07;7.07;;;;;;;;;;4963551;28;20359;-77
2023/03/07 13:48:10;;;;;;;10.53;7.23;;;;;;;;;;4952097;28;20229;-77
2023/03/07 13:50:38;;;;;;;9.87;7.33;;;;;;;;;;4961231;28;20208;-77
2023/03/07 13:53:08;;;;;;;9.80;6.67;;;;;;;;;;4959272;28;20741;-78
2023/03/07 13:55:46;;;;;;;11.23;7.90;;;;;;;;;;4960861;28;20211;-78
2023/03/07 13:58:25;;;;;;;10.40;7.83;;;;;;;;;;4964404;28;20590;-77
2023/03/07 14:01:03;;;;;;;9.83;6.73;;;;;;;;;;4946747;28;21897;-76
2023/03/07 14:03:38;;;;;;;10.50;7.63;;;;;;;;;;4959193;28;20208;-76
2023/03/07 14:06:11;;;;;;;10.23;6.93;;;;;;;;;;4961482;28;20669;-78
2023/03/07 14:08:38;;;;;;;10.97;7.03;;;;;;;;;;4955892;28;20347;-76
2023/03/07 14:11:07;;;;;;;11.67;7.97;;;;;;;;;;4970267;28;20255;-77
2023/03/07 14:13:48;;;;;;;12.73;8.60;;;;;;;;;;4966183;28;20200;-78
2023/03/07 14:16:21;;;;;;;10.60;8.03;;;;;;;;;;4967035;28;20204;-76
2023/03/07 14:18:52;;;;;;;11.40;7.47;;;;;;;;;;4967569;28;20213;-75
2023/03/07 14:21:38;;;;;;;9.47;7.03;;;;;;;;;;4979193;28;20327;-77
2023/03/07 14:24:11;;;;;;;8.73;6.67;;;;;;;;;;4967204;28;20246;-77
2023/03/07 14:26:41;;;;;;;10.00;6.83;;;;;;;;;;4970373;28;20250;-75
2023/03/07 14:29:13;;;;;;;11.97;7.53;;;;;;;;;;4966263;28;21214;-77
2023/03/07 14:31:41;;;;;;;9.17;7.37;;;;;;;;;;4950039;28;20221;-75
2023/03/07 14:34:23;;;;;;;9.57;6.93;;;;;;;;;;4943240;28;20227;-76
2023/03/07 14:36:55;;;;;;;9.37;7.50;;;;;;;;;;4947893;28;21211;-76
2023/03/07 14:39:23;;;;;;;8.50;6.93;;;;;;;;;;4942431;28;20219;-77
2023/03/07 14:42:02;;;;;;;9.10;6.70;;;;;;;;;;4943804;28;20395;-75
2023/03/07 14:44:48;;;;;;;10.30;7.17;;;;;;;;;;4955742;28;20208;-78
2023/03/07 14:47:25;;;;;;;13.73;8.63;;;;;;;;;;4945519;28;20271;-77
2023/03/07 14:50:02;;;;;;;10.53;6.80;;;;;;;;;;4951389;28;20222;-75